createdAt,value
2023-01-18T00:01:50.161Z,2.67
2023-01-18T00:04:19.514Z,3.43
2023-01-18T00:06:54.560Z,3.03
2023-01-18T00:09:28.582Z,3.93
2023-01-18T00:11:56.003Z,4.27
2023-01-18T00:14:29.575Z,4.87
2023-01-18T00:17:10.573Z,3.87
2023-01-18T00:19:44.514Z,5.47
2023-01-18T00:22:13.300Z,4.10
2023-01-18T00:24:47.772Z,5.57
2023-01-18T00:27:15.206Z,5.07
2023-01-18T00:29:49.553Z,4.20
2023-01-18T00:32:18.955Z,4.23
2023-01-18T00:34:53.022Z,3.57
2023-01-18T00:37:27.021Z,4.57
2023-01-18T00:39:56.116Z,4.40
2023-01-18T00:42:48.215Z,4.27
2023-01-18T00:45:16.731Z,4.23
2023-01-18T00:47:51.157Z,4.23
2023-01-18T00:50:20.889Z,4.70
2023-01-18T00:52:58.610Z,4.70
2023-01-18T00:55:34.784Z,4.90
2023-01-18T00:58:02.098Z,4.27
2023-01-18T01:00:29.513Z,4.37
2023-01-18T01:03:04.790Z,4.77
2023-01-18T01:05:59.369Z,6.90
2023-01-18T01:08:26.832Z,3.97
2023-01-18T01:11:11.445Z,5.17
2023-01-18T01:14:06.385Z,2.40
2023-01-18T01:17:04.876Z,3.20
2023-01-18T01:19:50.821Z,3.67
2023-01-18T01:22:42.877Z,2.77
2023-01-18T01:25:36.824Z,4.80
2023-01-18T01:28:10.838Z,3.63
2023-01-18T01:30:44.888Z,4.43
2023-01-18T01:33:12.519Z,4.07
2023-01-18T01:35:46.835Z,3.23
2023-01-18T01:38:16.121Z,5.77
2023-01-18T01:40:50.147Z,3.73
2023-01-18T01:43:24.160Z,3.20
2023-01-18T01:45:52.869Z,2.40
2023-01-18T01:48:27.134Z,2.57
2023-01-18T01:51:01.123Z,4.10
2023-01-18T01:53:28.665Z,3.17
2023-01-18T01:56:02.408Z,2.43
2023-01-18T01:58:32.764Z,3.23
2023-01-18T02:01:09.706Z,3.17
2023-01-18T02:03:40.435Z,3.07
2023-01-18T02:06:39.121Z,3.37
2023-01-18T02:09:09.723Z,3.80
2023-01-18T02:11:46.091Z,4.73
2023-01-18T02:14:22.187Z,5.77
2023-01-18T02:17:15.142Z,5.70
2023-01-18T02:20:15.127Z,4.90
2023-01-18T02:23:23.164Z,7.23
2023-01-18T02:26:15.130Z,6.20
2023-01-18T02:28:51.283Z,5.10
2023-01-18T02:31:28.112Z,6.23
2023-01-18T02:34:20.153Z,4.43
2023-01-18T02:37:10.150Z,5.60
2023-01-18T02:40:30.647Z,4.90
2023-01-18T02:43:26.149Z,7.03
2023-01-18T02:46:21.194Z,6.10
2023-01-18T02:48:57.121Z,8.47
2023-01-18T02:51:31.112Z,5.93
2023-01-18T02:54:05.139Z,6.57
2023-01-18T02:56:49.209Z,5.63
2023-01-18T02:59:37.247Z,12.70
2023-01-18T03:02:27.782Z,63.37
2023-01-18T03:05:02.696Z,202.40
2023-01-18T03:08:19.783Z,82.90
2023-01-18T03:11:08.684Z,434.30
2023-01-18T03:14:11.260Z,762.90
2023-01-18T03:17:16.247Z,479.93
2023-01-18T03:20:13.287Z,321.10
2023-01-18T03:23:18.853Z,382.50
2023-01-18T03:25:58.305Z,352.63
2023-01-18T03:28:59.972Z,77.57
2023-01-18T03:32:18.305Z,13.07
2023-01-18T03:35:06.255Z,5.90
2023-01-18T03:37:48.273Z,4.50
2023-01-18T03:40:35.411Z,4.90
2023-01-18T03:43:18.311Z,5.07
2023-01-18T03:46:01.785Z,7.07
2023-01-18T03:48:29.518Z,8.10
2023-01-18T03:51:18.765Z,21.60
2023-01-18T03:54:19.757Z,16.70
2023-01-18T03:57:00.821Z,20.70
2023-01-18T03:59:40.760Z,8.87
2023-01-18T04:02:10.190Z,5.97
2023-01-18T04:04:43.731Z,7.03
2023-01-18T04:07:17.796Z,32.43
2023-01-18T04:09:45.181Z,24.27
2023-01-18T04:12:18.750Z,5.57
2023-01-18T04:15:01.836Z,117.00
2023-01-18T04:17:37.848Z,135.57
2023-01-18T04:20:15.345Z,16.13
2023-01-18T04:22:49.809Z,6.50
2023-01-18T04:25:17.323Z,5.23
2023-01-18T04:27:51.836Z,4.93
2023-01-18T04:30:28.083Z,17.70
2023-01-18T04:32:55.767Z,17.10
2023-01-18T04:35:29.807Z,16.43
2023-01-18T04:37:57.148Z,14.47
2023-01-18T04:40:32.626Z,8.80
2023-01-18T04:43:06.598Z,6.23
2023-01-18T04:45:43.198Z,4.07
2023-01-18T04:48:11.797Z,12.73
2023-01-18T04:50:46.859Z,4.73
2023-01-18T04:53:20.588Z,169.30
2023-01-18T04:55:48.061Z,27.87
2023-01-18T04:58:22.608Z,24.73
2023-01-18T05:00:52.210Z,6.60
2023-01-18T05:03:26.649Z,5.97
2023-01-18T05:06:01.607Z,45.80
2023-01-18T05:08:28.922Z,27.53
2023-01-18T05:11:12.745Z,17.27
2023-01-18T05:13:46.670Z,8.63
2023-01-18T05:16:22.781Z,5.93
2023-01-18T05:18:56.714Z,7.33
2023-01-18T05:21:24.178Z,5.83
2023-01-18T05:23:57.683Z,5.87
2023-01-18T05:26:28.772Z,4.73
2023-01-18T05:29:07.700Z,4.97
2023-01-18T05:31:41.724Z,5.23
2023-01-18T05:34:16.671Z,5.40
2023-01-18T05:36:44.061Z,5.90
2023-01-18T05:39:18.743Z,6.47
2023-01-18T05:41:47.898Z,6.70
2023-01-18T05:44:23.353Z,7.03
2023-01-18T05:46:51.064Z,6.40
2023-01-18T05:49:26.451Z,4.93
2023-01-18T05:51:53.918Z,5.97
2023-01-18T05:54:29.473Z,5.30
2023-01-18T05:56:56.883Z,4.30
2023-01-18T05:59:30.429Z,6.03
2023-01-18T06:02:04.475Z,7.70
2023-01-18T06:04:32.010Z,4.80
2023-01-18T06:07:05.436Z,5.53
2023-01-18T06:09:32.906Z,5.60
2023-01-18T06:12:06.484Z,6.53
2023-01-18T06:14:40.409Z,6.60
2023-01-18T06:17:09.104Z,5.27
2023-01-18T06:19:43.412Z,5.37
2023-01-18T06:22:10.748Z,5.77
2023-01-18T06:24:44.471Z,4.53
2023-01-18T06:27:11.824Z,7.93
2023-01-18T06:29:45.563Z,4.50
2023-01-18T06:32:13.244Z,5.37
2023-01-18T06:39:15.460Z,6.47
2023-01-18T06:41:53.899Z,5.43
2023-01-18T06:44:27.816Z,4.63
2023-01-18T06:46:55.226Z,7.63
2023-01-18T06:49:28.806Z,5.80
2023-01-18T06:52:02.789Z,9.47
2023-01-18T06:54:30.961Z,5.47
2023-01-18T06:57:04.803Z,8.90
2023-01-18T06:59:32.207Z,6.23
2023-01-18T07:02:08.847Z,6.97
2023-01-18T07:04:42.751Z,7.83
2023-01-18T07:07:16.957Z,6.80
2023-01-18T07:09:44.362Z,9.87
2023-01-18T07:12:17.800Z,6.80
2023-01-18T07:14:59.596Z,7.40
2023-01-18T07:17:34.800Z,10.10
2023-01-18T07:20:08.782Z,7.93
2023-01-18T07:22:44.445Z,8.23
2023-01-18T07:25:13.408Z,8.50
2023-01-18T07:27:50.429Z,10.27
2023-01-18T07:30:24.469Z,10.37
2023-01-18T07:32:53.352Z,11.70
2023-01-18T07:35:28.452Z,8.67
2023-01-18T07:38:02.434Z,9.40
2023-01-18T07:40:31.973Z,8.90
2023-01-18T07:43:09.183Z,7.30
2023-01-18T07:45:44.317Z,8.37
2023-01-18T07:48:18.243Z,7.80
2023-01-18T07:50:52.482Z,7.97
2023-01-18T07:53:27.326Z,7.57
2023-01-18T07:55:55.333Z,7.00
2023-01-18T07:58:29.183Z,9.57
2023-01-18T08:01:01.819Z,11.97
2023-01-18T08:03:38.628Z,9.63
2023-01-18T08:06:14.575Z,11.37
2023-01-18T08:08:42.055Z,7.83
2023-01-18T08:11:17.732Z,9.37
2023-01-18T08:13:52.880Z,8.13
2023-01-18T08:16:33.634Z,13.07
2023-01-18T08:19:00.934Z,8.47
2023-01-18T08:21:34.564Z,8.77
2023-01-18T08:24:02.014Z,7.97
2023-01-18T08:26:35.590Z,6.30
2023-01-18T08:29:09.618Z,7.23
2023-01-18T08:31:37.072Z,4.90
2023-01-18T08:34:11.588Z,4.67
2023-01-18T08:36:38.974Z,7.53
2023-01-18T08:39:13.595Z,8.37
2023-01-18T08:41:41.932Z,6.73
2023-01-18T08:44:18.629Z,6.97
2023-01-18T08:46:46.024Z,7.07
2023-01-18T08:49:22.217Z,6.47
2023-01-18T08:51:49.592Z,5.57
2023-01-18T08:54:23.593Z,7.23
2023-01-18T08:56:54.174Z,6.67
2023-01-18T08:59:31.789Z,9.87
2023-01-18T09:01:59.301Z,5.07
2023-01-18T09:04:35.598Z,4.80
2023-01-18T09:07:09.578Z,4.10
2023-01-18T09:09:44.814Z,5.07
2023-01-18T09:12:15.257Z,6.80
2023-01-18T09:14:55.592Z,5.33
2023-01-18T09:17:37.597Z,7.47
2023-01-18T09:20:18.770Z,5.93
2023-01-18T09:22:48.044Z,6.17
2023-01-18T09:25:24.683Z,8.20
2023-01-18T09:27:52.563Z,5.90
2023-01-18T09:30:26.646Z,5.77
2023-01-18T09:33:00.975Z,7.17
2023-01-18T09:35:35.650Z,7.40
2023-01-18T09:38:03.035Z,5.17
2023-01-18T09:40:51.611Z,8.20
2023-01-18T09:43:28.496Z,5.70
2023-01-18T09:46:03.626Z,7.73
2023-01-18T09:48:38.280Z,5.63
2023-01-18T09:51:20.591Z,8.03
2023-01-18T09:54:08.603Z,10.23
2023-01-18T09:56:55.985Z,5.40
2023-01-18T09:59:49.619Z,6.37
2023-01-18T10:02:25.848Z,6.40
2023-01-18T10:05:09.590Z,7.27
2023-01-18T10:07:46.852Z,8.53
2023-01-18T10:10:27.525Z,6.23
2023-01-18T10:13:27.381Z,7.43
2023-01-18T10:16:09.676Z,15.83
2023-01-18T10:18:52.586Z,7.33
2023-01-18T10:21:55.631Z,7.83
2023-01-18T10:24:29.622Z,7.13
2023-01-18T10:27:27.327Z,5.00
2023-01-18T10:30:21.665Z,5.53
2023-01-18T10:32:55.160Z,4.70
2023-01-18T10:35:41.647Z,3.60
2023-01-18T10:38:13.192Z,5.23
2023-01-18T10:40:48.678Z,6.27
2023-01-18T10:43:20.493Z,5.17
2023-01-18T10:45:54.740Z,4.93
2023-01-18T10:48:28.112Z,5.63
2023-01-18T10:51:32.610Z,4.17
2023-01-18T10:54:06.596Z,3.47
2023-01-18T10:56:34.052Z,5.50
2023-01-18T10:59:08.608Z,4.63
2023-01-18T11:01:59.783Z,3.83
2023-01-18T11:04:31.199Z,4.07
2023-01-18T11:07:08.638Z,3.53
2023-01-18T11:10:02.653Z,5.10
2023-01-18T11:12:38.245Z,3.83
2023-01-18T11:15:30.601Z,3.80
2023-01-18T11:18:04.614Z,7.90
2023-01-18T11:20:46.177Z,3.87
2023-01-18T11:23:29.172Z,3.37
2023-01-18T11:25:59.413Z,6.10
2023-01-18T11:28:52.222Z,6.00
2023-01-18T11:31:25.505Z,5.70
2023-01-18T11:34:02.200Z,4.13
2023-01-18T11:36:43.199Z,13.97
2023-01-18T11:39:33.169Z,5.20
2023-01-18T11:42:28.155Z,10.17
2023-01-18T11:45:05.303Z,12.33
2023-01-18T11:47:47.271Z,8.60
2023-01-18T11:50:37.952Z,5.73
2023-01-18T11:53:20.213Z,6.67
2023-01-18T11:56:13.179Z,5.53
2023-01-18T11:58:41.564Z,4.87
2023-01-18T12:01:48.101Z,6.47
2023-01-18T12:04:35.162Z,5.10
2023-01-18T12:07:31.815Z,4.17
2023-01-18T12:10:08.135Z,7.13
2023-01-18T12:12:52.861Z,3.07
2023-01-18T12:15:35.808Z,4.00
2023-01-18T12:18:31.647Z,4.30
2023-01-18T12:21:18.635Z,5.60
2023-01-18T12:24:23.812Z,3.80
2023-01-18T12:27:00.599Z,3.90
2023-01-18T12:29:42.781Z,3.20
2023-01-18T12:32:39.707Z,6.10
2023-01-18T12:35:25.590Z,3.80
2023-01-18T12:38:13.558Z,7.57
2023-01-18T12:40:56.701Z,7.30
2023-01-18T12:43:47.687Z,7.17
2023-01-18T12:46:23.267Z,3.13
2023-01-18T12:49:06.675Z,6.50
2023-01-18T12:51:36.696Z,4.93
2023-01-18T12:54:23.696Z,4.70
2023-01-18T12:56:54.118Z,3.67
2023-01-18T13:00:05.694Z,4.73
2023-01-18T13:02:47.403Z,3.43
2023-01-18T13:05:49.721Z,3.70
2023-01-18T13:08:23.941Z,4.10
2023-01-18T13:11:09.696Z,2.00
2023-01-18T13:13:41.393Z,9.53
2023-01-18T13:16:46.240Z,20.43
2023-01-18T13:19:24.630Z,2.60
2023-01-18T13:22:30.248Z,10.27
2023-01-18T13:25:31.090Z,7.53
2023-01-18T13:28:21.307Z,3.47
2023-01-18T13:31:02.344Z,7.10
2023-01-18T13:33:46.247Z,9.27
2023-01-18T13:36:17.974Z,9.53
2023-01-18T13:39:03.279Z,8.40
2023-01-18T13:41:31.709Z,6.17
2023-01-18T13:44:09.300Z,6.87
2023-01-18T13:46:39.618Z,4.40
2023-01-18T13:49:46.646Z,2.57
2023-01-18T13:52:42.565Z,3.63
2023-01-18T13:55:38.290Z,5.07
2023-01-18T13:58:23.249Z,5.87
2023-01-18T14:00:58.289Z,2.20
2023-01-18T14:03:29.897Z,5.10
2023-01-18T14:06:09.015Z,2.97
2023-01-18T14:08:46.447Z,3.80
2023-01-18T14:11:25.876Z,1.87
2023-01-18T14:14:07.274Z,2.83
2023-01-18T14:16:45.337Z,3.00
2023-01-18T14:19:24.253Z,4.97
2023-01-18T14:22:34.194Z,3.53
2023-01-18T14:25:32.440Z,3.13
2023-01-18T14:28:10.529Z,4.07
2023-01-18T14:30:47.266Z,3.67
2023-01-18T14:33:35.238Z,2.90
2023-01-18T14:36:10.321Z,2.77
2023-01-18T14:38:37.867Z,3.47
2023-01-18T14:41:15.272Z,4.80
2023-01-18T14:43:46.305Z,5.57
2023-01-18T14:46:32.904Z,2.70
2023-01-18T14:49:02.902Z,3.87
2023-01-18T14:51:36.877Z,6.40
2023-01-18T14:54:05.149Z,5.07
2023-01-18T14:56:47.418Z,4.30
2023-01-18T14:59:37.336Z,5.53
2023-01-18T15:02:25.397Z,3.13
2023-01-18T15:05:10.694Z,6.47
2023-01-18T15:07:47.383Z,6.13
2023-01-18T15:10:19.122Z,3.53
2023-01-18T15:13:01.959Z,4.47
2023-01-18T15:15:55.813Z,3.67
2023-01-18T15:18:32.542Z,3.97
2023-01-18T15:21:18.584Z,4.70
2023-01-18T15:23:53.522Z,3.07
2023-01-18T15:26:56.619Z,4.93
2023-01-18T15:29:34.621Z,5.60
2023-01-18T15:32:31.650Z,3.73
2023-01-18T15:35:00.873Z,4.60
2023-01-18T15:37:40.676Z,9.10
2023-01-18T15:40:22.489Z,4.33
2023-01-18T15:43:09.078Z,3.87
2023-01-18T15:45:55.609Z,3.50
2023-01-18T15:48:25.174Z,5.30
2023-01-18T15:51:03.577Z,4.70
2023-01-18T15:53:45.958Z,5.00
2023-01-18T15:56:25.543Z,4.50
2023-01-18T15:58:58.183Z,5.23
2023-01-18T16:01:38.552Z,5.30
2023-01-18T16:04:31.783Z,7.10
2023-01-18T16:07:33.922Z,6.87
2023-01-18T16:10:34.587Z,6.23
2023-01-18T16:13:28.687Z,5.47
2023-01-18T16:16:30.534Z,5.77
2023-01-18T16:19:25.813Z,11.03
2023-01-18T16:22:13.198Z,7.33
2023-01-18T16:25:01.886Z,6.00
2023-01-18T16:27:31.692Z,9.97
2023-01-18T16:30:12.054Z,5.20
2023-01-18T16:32:40.339Z,7.13
2023-01-18T16:35:21.833Z,8.97
2023-01-18T16:37:52.191Z,8.10
2023-01-18T16:40:32.223Z,11.00
2023-01-18T16:43:30.691Z,8.03
2023-01-18T16:46:08.691Z,6.73
2023-01-18T16:48:38.345Z,7.03
2023-01-18T16:51:19.133Z,7.77
2023-01-18T16:53:48.826Z,10.57
2023-01-18T16:56:24.292Z,10.53
2023-01-18T16:58:58.343Z,6.63
2023-01-18T17:01:25.904Z,9.87
2023-01-18T17:04:02.687Z,8.87
2023-01-18T17:06:30.090Z,11.20
2023-01-18T17:09:04.480Z,9.43
2023-01-18T17:11:33.320Z,11.47
2023-01-18T17:14:00.712Z,9.67
2023-01-18T17:16:34.640Z,8.47
2023-01-18T17:19:12.391Z,13.00
2023-01-18T17:21:47.784Z,6.97
2023-01-18T17:24:22.504Z,9.10
2023-01-18T17:26:50.054Z,9.20
2023-01-18T17:29:29.602Z,11.67
2023-01-18T17:31:59.150Z,10.17
2023-01-18T17:34:33.112Z,11.50
2023-01-18T17:37:00.464Z,14.77
2023-01-18T17:39:44.106Z,11.83
2023-01-18T17:42:30.168Z,12.57
2023-01-18T17:45:15.885Z,11.07
2023-01-18T17:47:50.367Z,10.23
2023-01-18T17:50:23.129Z,9.53
2023-01-18T17:52:58.735Z,10.30
2023-01-18T17:55:34.635Z,12.47
2023-01-18T17:58:11.372Z,12.63
2023-01-18T18:00:45.699Z,12.27
2023-01-18T18:03:13.407Z,8.27
2023-01-18T18:05:50.671Z,17.40
2023-01-18T18:08:28.462Z,9.40
2023-01-18T18:11:02.460Z,10.53
2023-01-18T18:13:37.457Z,12.23
2023-01-18T18:16:18.205Z,13.13
2023-01-18T18:19:01.440Z,14.47
2023-01-18T18:21:36.532Z,19.67
2023-01-18T18:24:03.986Z,14.47
2023-01-18T18:26:38.480Z,12.57
2023-01-18T18:29:07.894Z,10.33
2023-01-18T18:31:41.913Z,54.37
2023-01-18T18:34:10.319Z,10.17
2023-01-18T18:36:44.898Z,10.97
2023-01-18T18:39:12.501Z,8.67
2023-01-18T18:41:47.924Z,13.47
2023-01-18T18:44:16.351Z,12.10
2023-01-18T18:46:51.978Z,10.80
2023-01-18T18:49:20.376Z,13.57
2023-01-18T18:51:54.930Z,10.63
2023-01-18T18:54:23.892Z,12.27
2023-01-18T18:56:57.927Z,11.27
2023-01-18T18:59:25.261Z,14.20
2023-01-18T19:02:00.003Z,10.17
2023-01-18T19:04:31.027Z,16.80
2023-01-18T19:07:05.351Z,18.27
2023-01-18T19:09:33.256Z,10.63
2023-01-18T19:12:07.374Z,14.73
2023-01-18T19:14:34.753Z,14.17
2023-01-18T19:17:25.153Z,13.23
2023-01-18T19:19:56.553Z,13.57
2023-01-18T19:22:30.424Z,11.37
2023-01-18T19:25:04.422Z,12.40
2023-01-18T19:27:31.781Z,13.83
2023-01-18T19:30:07.357Z,17.87
2023-01-18T19:32:41.406Z,10.53
2023-01-18T19:35:09.113Z,15.07
2023-01-18T19:37:48.503Z,13.80
2023-01-18T19:40:23.812Z,14.27
2023-01-18T19:43:02.809Z,13.20
2023-01-18T19:45:31.422Z,15.83
2023-01-18T19:48:07.544Z,11.57
2023-01-18T19:50:41.539Z,15.30
2023-01-18T19:53:15.512Z,11.80
2023-01-18T19:55:43.021Z,13.50
2023-01-18T19:58:16.507Z,12.50
2023-01-18T20:00:43.862Z,17.43
2023-01-18T20:03:19.541Z,15.20
2023-01-18T20:05:48.945Z,16.07
2023-01-18T20:08:25.476Z,16.53
2023-01-18T20:10:54.228Z,15.63
2023-01-18T20:13:28.005Z,19.33
2023-01-18T20:16:05.093Z,15.33
2023-01-18T20:18:55.545Z,13.43
2023-01-18T20:21:36.532Z,18.60
2023-01-18T20:24:04.520Z,13.03
2023-01-18T20:26:41.714Z,16.63
2023-01-18T20:29:12.479Z,14.27
2023-01-18T20:31:50.229Z,16.50
2023-01-18T20:34:17.968Z,16.00
2023-01-18T20:36:56.542Z,16.13
2023-01-18T20:39:30.503Z,13.17
2023-01-18T20:42:04.508Z,13.57
2023-01-18T20:44:38.480Z,14.33
2023-01-18T20:47:12.509Z,15.03
2023-01-18T20:49:47.512Z,13.27
2023-01-18T20:52:21.521Z,13.33
2023-01-18T20:54:55.519Z,11.80
2023-01-18T20:57:30.503Z,9.30
2023-01-18T20:59:58.147Z,18.10
2023-01-18T21:02:32.632Z,13.40
2023-01-18T21:05:00.110Z,15.07
2023-01-18T21:07:29.655Z,11.40
2023-01-18T21:10:03.503Z,15.40
2023-01-18T21:12:37.530Z,16.33
2023-01-18T21:15:13.504Z,12.07
2023-01-18T21:17:54.521Z,13.83
2023-01-18T21:20:28.570Z,12.77
2023-01-18T21:23:03.509Z,13.17
2023-01-18T21:25:37.522Z,15.27
2023-01-18T21:28:05.001Z,12.00
2023-01-18T21:30:38.542Z,12.57
2023-01-18T21:33:14.541Z,14.73
2023-01-18T21:35:45.157Z,14.10
2023-01-18T21:38:19.868Z,17.50
2023-01-18T21:40:53.936Z,11.43
2023-01-18T21:43:48.113Z,12.97
2023-01-18T21:46:15.530Z,16.63
2023-01-18T21:48:43.016Z,13.63
2023-01-18T21:51:37.270Z,13.23
2023-01-18T21:54:14.803Z,11.50
2023-01-18T21:56:52.016Z,11.27
2023-01-18T21:59:19.595Z,16.43
2023-01-18T22:01:48.235Z,11.40
2023-01-18T22:04:41.892Z,10.97
2023-01-18T22:07:09.246Z,11.57
2023-01-18T22:09:59.011Z,14.17
2023-01-18T22:12:38.978Z,12.10
2023-01-18T22:15:09.538Z,10.80
2023-01-18T22:17:50.142Z,10.67
2023-01-18T22:20:24.961Z,12.73
2023-01-18T22:22:54.382Z,12.53
2023-01-18T22:25:27.969Z,10.27
2023-01-18T22:28:02.333Z,16.70
2023-01-18T22:30:36.978Z,10.27
2023-01-18T22:33:04.377Z,10.73
2023-01-18T22:35:37.950Z,10.90
2023-01-18T22:38:17.940Z,14.83
2023-01-18T22:40:47.456Z,13.70
2023-01-18T22:43:20.932Z,15.43
2023-01-18T22:45:56.050Z,11.30
2023-01-18T22:48:31.924Z,14.80
2023-01-18T22:51:05.622Z,11.30
2023-01-18T22:53:40.111Z,11.97
2023-01-18T22:56:11.114Z,13.77
2023-01-18T22:58:45.116Z,12.20
2023-01-18T23:01:31.118Z,12.93
2023-01-18T23:04:02.915Z,16.27
2023-01-18T23:06:48.306Z,11.40
2023-01-18T23:09:17.489Z,11.27
2023-01-18T23:11:52.088Z,12.30
2023-01-18T23:14:46.435Z,13.33
2023-01-18T23:17:45.224Z,16.33
2023-01-18T23:20:14.959Z,11.83
2023-01-18T23:22:49.214Z,10.17
2023-01-18T23:25:17.341Z,12.57
2023-01-18T23:27:53.480Z,10.57
2023-01-18T23:30:27.470Z,10.73
2023-01-18T23:32:54.853Z,15.43
2023-01-18T23:35:29.503Z,11.10
2023-01-18T23:37:57.080Z,12.53
2023-01-18T23:40:49.587Z,10.00
2023-01-18T23:43:35.736Z,9.57
2023-01-18T23:46:28.543Z,10.00
2023-01-18T23:49:20.487Z,9.87
2023-01-18T23:52:13.514Z,9.10
2023-01-18T23:54:48.758Z,8.47
2023-01-18T23:57:26.309Z,8.93
2023-01-18T23:59:53.836Z,8.77
